Ashley Falls, Massachusetts
Current Conditions -  °F | °C
As of 2:54 PM on Friday 31 Oct 2014 (Local Time) from KPSF Reporting Station
Overcast Overcast  
Wind Chill: 46°   Ceiling: 3700
Heat Index: 46°   Visibility: 10mi
Dew Point: 36°   Wind: 3mph
Humidity: 68%   Direction: 70°ENE
Pressure: 29.94"   Gusts: NA
Location:  42.06°N, 73.34°W
Report Text: KPSF 311854Z AUTO 07003KT 10SM OVC037 08/02 A2994 RMK AO2 SLP141 T00780022
Loading
Personal Weather Stations






























Interactive Weather Map
Tropical Storm Tracking
New forecast layout! Learn more

10-Day Weather Forecast

Advertisements
Track Severe Weather on mobile